createdAt,value
2018-12-26T00:02:21.272Z,4.90
2018-12-26T00:04:51.519Z,4.80
2018-12-26T00:07:21.859Z,4.27
2018-12-26T00:09:52.161Z,5.20
2018-12-26T00:12:22.549Z,5.27
2018-12-26T00:14:52.332Z,5.43
2018-12-26T00:17:22.534Z,5.37
2018-12-26T00:19:52.913Z,4.73
2018-12-26T00:22:23.213Z,4.53
2018-12-26T00:24:53.592Z,4.63
2018-12-26T00:27:23.985Z,4.90
2018-12-26T00:29:54.225Z,5.40
2018-12-26T00:32:24.511Z,4.50
2018-12-26T00:34:54.824Z,4.40
2018-12-26T00:37:25.320Z,4.87
2018-12-26T00:39:55.709Z,4.50
2018-12-26T00:42:25.989Z,4.30
2018-12-26T00:44:56.219Z,4.07
2018-12-26T00:47:26.615Z,4.70
2018-12-26T00:49:56.972Z,4.53
2018-12-26T00:52:27.262Z,4.53
2018-12-26T00:54:57.856Z,4.00
2018-12-26T00:57:28.146Z,4.30
2018-12-26T00:59:58.863Z,3.90
2018-12-26T01:02:29.148Z,4.23
2018-12-26T01:04:59.324Z,4.30
2018-12-26T01:07:29.597Z,3.97
2018-12-26T01:10:00.283Z,4.17
2018-12-26T01:12:30.491Z,4.33
2018-12-26T01:15:00.788Z,4.00
2018-12-26T01:17:31.066Z,3.80
2018-12-26T01:20:01.316Z,4.60
2018-12-26T01:22:31.971Z,4.80
2018-12-26T01:25:02.473Z,3.80
2018-12-26T01:27:32.685Z,3.97
2018-12-26T01:30:03.055Z,4.10
2018-12-26T01:32:33.529Z,3.60
2018-12-26T01:35:04.218Z,3.83
2018-12-26T01:37:35.096Z,4.10
2018-12-26T01:40:05.565Z,4.23
2018-12-26T01:42:35.948Z,3.57
2018-12-26T01:45:06.527Z,4.60
2018-12-26T01:47:36.923Z,4.07
2018-12-26T01:50:07.339Z,3.43
2018-12-26T01:52:37.789Z,3.60
2018-12-26T01:55:08.101Z,3.67
2018-12-26T01:57:38.367Z,3.47
2018-12-26T02:00:08.947Z,3.50
2018-12-26T02:02:39.287Z,3.20
2018-12-26T02:05:09.475Z,3.37
2018-12-26T02:07:39.893Z,3.50
2018-12-26T02:10:10.239Z,2.87
2018-12-26T02:12:40.884Z,2.97
2018-12-26T02:15:11.200Z,3.00
2018-12-26T02:17:41.572Z,2.80
2018-12-26T02:20:11.884Z,2.97
2018-12-26T02:22:42.463Z,3.43
2018-12-26T02:25:12.848Z,2.67
2018-12-26T02:27:43.488Z,2.97
2018-12-26T02:30:13.760Z,3.40
2018-12-26T02:32:44.090Z,3.17
2018-12-26T02:35:14.434Z,2.57
2018-12-26T02:37:45.082Z,3.07
2018-12-26T02:40:15.465Z,3.10
2018-12-26T02:42:45.813Z,3.03
2018-12-26T02:45:16.118Z,2.90
2018-12-26T02:47:46.419Z,2.90
2018-12-26T02:50:16.698Z,2.67
2018-12-26T02:52:47.078Z,2.60
2018-12-26T02:55:17.372Z,2.83
2018-12-26T02:57:47.720Z,2.97
2018-12-26T03:00:17.924Z,3.10
2018-12-26T03:02:48.342Z,2.80
2018-12-26T03:05:18.729Z,3.17
2018-12-26T03:07:49.124Z,2.70
2018-12-26T03:10:19.429Z,2.40
2018-12-26T03:12:49.730Z,2.70
2018-12-26T03:15:20.065Z,3.57
2018-12-26T03:17:50.401Z,3.00
2018-12-26T03:20:19.974Z,2.97
2018-12-26T03:22:50.193Z,2.90
2018-12-26T03:25:20.536Z,2.40
2018-12-26T03:27:50.382Z,3.10
2018-12-26T03:30:20.575Z,2.97
2018-12-26T03:32:50.841Z,3.17
2018-12-26T03:35:21.185Z,3.10
2018-12-26T03:37:51.936Z,2.60
2018-12-26T03:40:22.284Z,3.13
2018-12-26T03:42:52.735Z,2.70
2018-12-26T03:45:23.160Z,2.77
2018-12-26T03:47:53.750Z,3.10
2018-12-26T03:50:24.153Z,2.90
2018-12-26T03:52:54.669Z,2.93
2018-12-26T03:55:25.040Z,3.13
2018-12-26T03:57:55.372Z,2.53
2018-12-26T04:00:25.724Z,3.13
2018-12-26T04:02:56.131Z,3.27
2018-12-26T04:05:26.545Z,3.50
2018-12-26T04:07:57.061Z,3.47
2018-12-26T04:10:27.560Z,3.83
2018-12-26T04:12:58.156Z,3.03
2018-12-26T04:15:28.779Z,3.23
2018-12-26T04:17:59.466Z,3.40
2018-12-26T04:20:29.787Z,3.60
2018-12-26T04:23:00.332Z,3.43
2018-12-26T04:25:30.736Z,3.63
2018-12-26T04:28:01.048Z,4.10
2018-12-26T04:30:31.391Z,3.20
2018-12-26T04:33:01.778Z,3.17
2018-12-26T04:35:32.203Z,3.83
2018-12-26T04:38:02.792Z,3.50
2018-12-26T04:40:33.095Z,3.93
2018-12-26T04:43:03.482Z,3.90
2018-12-26T04:45:33.739Z,3.73
2018-12-26T04:48:04.186Z,3.47
2018-12-26T04:50:34.837Z,3.50
2018-12-26T04:53:04.675Z,4.13
2018-12-26T04:55:34.864Z,3.50
2018-12-26T04:58:05.118Z,4.17
2018-12-26T05:00:35.353Z,4.30
2018-12-26T05:03:05.743Z,3.73
2018-12-26T05:05:36.028Z,3.90
2018-12-26T05:08:06.361Z,4.27
2018-12-26T05:10:36.769Z,4.60
2018-12-26T05:13:07.660Z,4.10
2018-12-26T05:15:37.451Z,4.13
2018-12-26T05:18:07.700Z,3.87
2018-12-26T05:20:38.040Z,4.20
2018-12-26T05:23:08.447Z,4.50
2018-12-26T05:25:38.682Z,3.83
2018-12-26T05:28:08.859Z,4.47
2018-12-26T05:30:39.197Z,5.27
2018-12-26T05:33:09.459Z,5.03
2018-12-26T05:35:39.672Z,4.07
2018-12-26T05:38:10.256Z,4.17
2018-12-26T05:40:40.591Z,4.50
2018-12-26T05:43:10.895Z,4.23
2018-12-26T05:45:41.211Z,4.90
2018-12-26T05:48:11.521Z,4.53
2018-12-26T05:50:41.723Z,4.90
2018-12-26T05:53:11.926Z,5.27
2018-12-26T05:55:42.161Z,5.07
2018-12-26T05:58:12.427Z,4.53
2018-12-26T06:00:42.789Z,4.90
2018-12-26T06:03:13.158Z,4.90
2018-12-26T06:05:43.559Z,4.80
2018-12-26T06:08:13.864Z,4.87
2018-12-26T06:10:44.173Z,5.27
2018-12-26T06:13:14.480Z,4.90
2018-12-26T06:15:44.755Z,5.37
2018-12-26T06:18:15.089Z,5.50
2018-12-26T06:20:45.776Z,5.47
2018-12-26T06:23:16.147Z,5.73
2018-12-26T06:25:46.459Z,5.63
2018-12-26T06:28:16.755Z,5.57
2018-12-26T06:30:47.042Z,5.60
2018-12-26T06:33:17.429Z,5.30
2018-12-26T06:35:47.683Z,6.00
2018-12-26T06:38:18.360Z,5.93
2018-12-26T06:40:48.643Z,5.87
2018-12-26T06:43:18.946Z,5.33
2018-12-26T06:45:49.080Z,6.53
2018-12-26T06:48:19.718Z,6.30
2018-12-26T06:50:50.044Z,5.77
2018-12-26T06:53:20.472Z,5.40
2018-12-26T06:55:50.860Z,5.63
2018-12-26T06:58:21.167Z,6.00
2018-12-26T07:00:51.367Z,5.20
2018-12-26T07:03:21.712Z,5.53
2018-12-26T07:05:51.987Z,6.10
2018-12-26T07:08:22.328Z,6.30
2018-12-26T07:10:52.628Z,5.80
2018-12-26T07:13:22.943Z,6.47
2018-12-26T07:15:53.140Z,6.57
2018-12-26T07:18:23.737Z,7.13
2018-12-26T07:20:54.063Z,6.30
2018-12-26T07:23:24.436Z,6.70
2018-12-26T07:25:54.676Z,6.07
2018-12-26T07:28:25.090Z,6.40
2018-12-26T07:30:55.361Z,6.50
2018-12-26T07:33:25.767Z,6.80
2018-12-26T07:35:55.943Z,6.73
2018-12-26T07:38:26.387Z,6.57
2018-12-26T07:40:56.629Z,6.77
2018-12-26T07:43:26.949Z,6.53
2018-12-26T07:45:57.336Z,7.57
2018-12-26T07:48:29.013Z,7.10
2018-12-26T07:50:58.176Z,7.43
2018-12-26T07:53:28.455Z,7.30
2018-12-26T07:55:58.777Z,6.93
2018-12-26T07:58:29.121Z,7.30
2018-12-26T08:00:59.415Z,6.80
2018-12-26T08:03:29.806Z,8.23
2018-12-26T08:06:00.031Z,7.40
2018-12-26T08:08:30.352Z,11.13
2018-12-26T08:11:00.614Z,8.33
2018-12-26T08:13:30.938Z,8.63
2018-12-26T08:16:01.367Z,7.73
2018-12-26T08:18:31.740Z,8.43
2018-12-26T08:21:02.076Z,8.07
2018-12-26T08:23:32.347Z,8.40
2018-12-26T08:26:02.669Z,9.60
2018-12-26T08:28:32.968Z,8.27
2018-12-26T08:31:03.555Z,9.13
2018-12-26T08:33:33.925Z,9.07
2018-12-26T08:36:04.604Z,8.80
2018-12-26T08:38:34.949Z,8.70
2018-12-26T08:41:05.187Z,8.60
2018-12-26T08:43:35.456Z,8.97
2018-12-26T08:46:05.832Z,8.90
2018-12-26T08:48:36.139Z,8.80
2018-12-26T08:51:06.384Z,7.37
2018-12-26T08:53:36.676Z,9.67
2018-12-26T08:56:07.088Z,9.33
2018-12-26T08:58:37.710Z,9.73
2018-12-26T09:01:07.985Z,9.60
2018-12-26T09:03:38.240Z,9.00
2018-12-26T09:06:08.591Z,8.03
2018-12-26T09:08:38.963Z,9.40
2018-12-26T09:11:09.208Z,9.67
2018-12-26T09:13:40.088Z,9.97
2018-12-26T09:16:09.870Z,9.90
2018-12-26T09:18:40.238Z,9.37
2018-12-26T09:21:10.540Z,9.37
2018-12-26T09:23:40.811Z,9.33
2018-12-26T09:26:12.731Z,10.37
2018-12-26T09:28:43.893Z,9.70
2018-12-26T09:31:13.716Z,10.40
2018-12-26T09:33:43.960Z,10.37
2018-12-26T09:36:14.395Z,10.60
2018-12-26T09:38:44.744Z,9.90
2018-12-26T09:41:15.007Z,10.50
2018-12-26T09:43:45.484Z,10.10
2018-12-26T09:46:15.819Z,10.73
2018-12-26T09:48:46.538Z,9.30
2018-12-26T09:51:16.987Z,9.93
2018-12-26T09:53:47.318Z,10.83
2018-12-26T09:56:17.466Z,10.63
2018-12-26T09:58:52.520Z,8.70
2018-12-26T10:01:18.556Z,10.63
2018-12-26T10:03:48.956Z,9.73
2018-12-26T10:06:19.438Z,12.97
2018-12-26T10:08:49.195Z,14.03
2018-12-26T10:11:19.443Z,9.73
2018-12-26T10:13:50.913Z,9.67
2018-12-26T10:16:20.460Z,8.87
2018-12-26T10:18:50.752Z,9.63
2018-12-26T10:21:20.971Z,11.70
2018-12-26T10:23:51.151Z,11.67
2018-12-26T10:26:21.515Z,12.00
2018-12-26T10:28:51.860Z,7.90
2018-12-26T10:31:22.205Z,10.53
2018-12-26T10:33:52.499Z,10.60
2018-12-26T10:36:22.992Z,10.67
2018-12-26T10:38:53.378Z,8.93
2018-12-26T10:41:23.740Z,12.20
2018-12-26T10:43:54.148Z,6.47
2018-12-26T10:46:24.449Z,8.93
2018-12-26T10:48:54.739Z,11.63
2018-12-26T10:51:25.164Z,8.93
2018-12-26T10:53:54.975Z,5.37
2018-12-26T10:56:24.570Z,8.30
2018-12-26T10:58:54.928Z,8.63
2018-12-26T11:01:25.278Z,7.27
2018-12-26T11:03:55.605Z,7.57
2018-12-26T11:06:25.820Z,7.70
2018-12-26T11:08:56.258Z,11.23
2018-12-26T11:11:26.015Z,11.43
2018-12-26T11:13:56.355Z,11.60
2018-12-26T11:16:26.740Z,12.90
2018-12-26T11:18:57.344Z,12.37
2018-12-26T11:21:27.484Z,10.23
2018-12-26T11:23:57.888Z,13.10
2018-12-26T11:26:28.108Z,13.87
2018-12-26T11:28:58.415Z,15.13
2018-12-26T11:31:28.612Z,8.23
2018-12-26T11:33:59.745Z,13.03
2018-12-26T11:36:30.168Z,12.73
2018-12-26T11:39:00.679Z,10.17
2018-12-26T11:41:31.065Z,9.87
2018-12-26T11:44:01.356Z,10.27
2018-12-26T11:46:31.656Z,10.67
2018-12-26T11:49:02.038Z,9.03
2018-12-26T11:51:32.199Z,11.03
2018-12-26T11:54:02.567Z,12.27
2018-12-26T11:56:32.870Z,10.83
2018-12-26T11:59:02.511Z,8.00
2018-12-26T12:01:32.738Z,13.57
2018-12-26T12:04:03.247Z,9.00
2018-12-26T12:06:33.612Z,9.87
2018-12-26T12:09:05.004Z,6.67
2018-12-26T12:11:36.391Z,12.37
2018-12-26T12:14:06.815Z,10.90
2018-12-26T12:16:37.140Z,9.93
2018-12-26T12:19:07.611Z,7.20
2018-12-26T12:21:38.032Z,9.13
2018-12-26T12:24:08.256Z,9.53
2018-12-26T12:26:39.339Z,10.67
2018-12-26T12:29:09.776Z,9.17
2018-12-26T12:31:39.969Z,9.03
2018-12-26T12:34:10.380Z,9.97
2018-12-26T12:36:40.958Z,9.97
2018-12-26T12:39:11.256Z,10.83
2018-12-26T12:41:41.677Z,12.00
2018-12-26T12:44:12.133Z,8.87
2018-12-26T12:46:42.350Z,10.60
2018-12-26T12:49:12.940Z,11.17
2018-12-26T12:51:43.323Z,10.53
2018-12-26T12:54:13.575Z,10.40
2018-12-26T12:56:44.243Z,14.40
2018-12-26T12:59:14.567Z,13.97
2018-12-26T13:01:45.026Z,13.03
2018-12-26T13:04:15.363Z,12.83
2018-12-26T13:06:45.595Z,10.17
2018-12-26T13:09:16.013Z,10.23
2018-12-26T13:11:46.663Z,11.43
2018-12-26T13:14:17.092Z,12.73
2018-12-26T13:16:47.379Z,10.50
2018-12-26T13:19:17.704Z,10.40
2018-12-26T13:21:47.886Z,13.13
2018-12-26T13:24:18.223Z,11.30
2018-12-26T13:26:47.947Z,12.57
2018-12-26T13:29:18.152Z,13.20
2018-12-26T13:31:47.811Z,11.53
2018-12-26T13:34:18.056Z,12.53
2018-12-26T13:36:48.643Z,12.90
2018-12-26T13:39:18.953Z,10.33
2018-12-26T13:41:49.187Z,11.00
2018-12-26T13:44:19.427Z,12.57
2018-12-26T13:46:50.048Z,11.87
2018-12-26T13:49:20.099Z,11.27
2018-12-26T13:51:50.411Z,12.10
2018-12-26T13:54:20.743Z,11.90
2018-12-26T13:56:51.091Z,10.97
2018-12-26T13:59:21.460Z,10.83
2018-12-26T14:01:51.671Z,12.23
2018-12-26T14:04:22.013Z,10.17
2018-12-26T14:06:52.252Z,11.70
2018-12-26T14:09:22.615Z,11.37
2018-12-26T14:11:52.993Z,11.40
2018-12-26T14:14:23.372Z,12.47
2018-12-26T14:16:53.575Z,12.87
2018-12-26T14:19:23.322Z,12.43
2018-12-26T14:21:53.479Z,12.13
2018-12-26T14:24:23.779Z,12.80
2018-12-26T14:26:53.956Z,12.30
2018-12-26T14:29:24.265Z,13.53
2018-12-26T14:31:54.571Z,14.37
2018-12-26T14:34:24.980Z,12.43
2018-12-26T14:36:55.389Z,13.50
2018-12-26T14:39:25.623Z,12.50
2018-12-26T14:41:55.928Z,12.83
2018-12-26T14:44:26.479Z,13.80
2018-12-26T14:46:56.599Z,13.40
2018-12-26T14:49:26.844Z,13.97
2018-12-26T14:51:57.123Z,13.07
2018-12-26T14:54:27.535Z,12.77
2018-12-26T14:56:57.848Z,13.93
2018-12-26T14:59:28.050Z,13.00
2018-12-26T15:01:58.355Z,13.33
2018-12-26T15:04:28.753Z,14.07
2018-12-26T15:06:59.175Z,11.47
2018-12-26T15:09:29.477Z,13.43
2018-12-26T15:11:59.849Z,14.77
2018-12-26T15:14:30.361Z,11.50
2018-12-26T15:17:00.568Z,14.77
2018-12-26T15:19:30.869Z,15.33
2018-12-26T15:22:01.161Z,13.40
2018-12-26T15:24:31.489Z,16.80
2018-12-26T15:27:01.818Z,15.30
2018-12-26T15:29:31.623Z,14.90
2018-12-26T15:32:02.107Z,14.37
2018-12-26T15:34:32.523Z,15.17
2018-12-26T15:37:03.095Z,15.10
2018-12-26T15:39:33.524Z,15.27
2018-12-26T15:42:04.015Z,15.70
2018-12-26T15:44:34.413Z,14.57
2018-12-26T15:47:04.215Z,14.93
2018-12-26T15:49:33.703Z,13.33
2018-12-26T15:52:04.322Z,13.30
2018-12-26T15:54:34.740Z,14.83
2018-12-26T15:57:05.176Z,17.10
2018-12-26T15:59:35.532Z,16.17
2018-12-26T16:02:05.952Z,16.70
2018-12-26T16:04:36.211Z,14.07
2018-12-26T16:07:06.455Z,14.90
2018-12-26T16:09:37.064Z,19.17
2018-12-26T16:12:07.580Z,17.17
2018-12-26T16:14:37.844Z,17.57
2018-12-26T16:17:08.269Z,21.67
2018-12-26T16:19:38.603Z,22.13
2018-12-26T16:22:08.907Z,15.60
2018-12-26T16:24:39.119Z,15.27
2018-12-26T16:27:09.381Z,20.03
2018-12-26T16:29:39.624Z,16.83
2018-12-26T16:32:09.993Z,14.53
2018-12-26T16:34:40.369Z,19.17
2018-12-26T16:37:11.040Z,18.47
2018-12-26T16:39:41.233Z,16.40
2018-12-26T16:42:11.671Z,24.50
2018-12-26T16:44:41.960Z,16.67
2018-12-26T16:47:12.320Z,19.47
2018-12-26T16:49:42.595Z,17.60
2018-12-26T16:52:12.931Z,12.90
2018-12-26T16:54:43.232Z,13.03
2018-12-26T16:57:13.721Z,16.67
2018-12-26T16:59:43.990Z,15.20
2018-12-26T17:02:14.319Z,13.37
2018-12-26T17:04:44.642Z,18.70
2018-12-26T17:07:15.057Z,19.63
2018-12-26T17:09:45.450Z,19.40
2018-12-26T17:12:15.721Z,13.27
2018-12-26T17:14:46.041Z,20.47
2018-12-26T17:17:16.376Z,15.53
2018-12-26T17:19:46.688Z,13.80
2018-12-26T17:22:17.034Z,11.80
2018-12-26T17:24:47.279Z,13.00
2018-12-26T17:27:17.578Z,12.63
2018-12-26T17:29:47.879Z,16.70
2018-12-26T17:32:18.264Z,13.63
2018-12-26T17:34:48.516Z,14.37
2018-12-26T17:37:19.128Z,11.77
2018-12-26T17:39:49.483Z,13.03
2018-12-26T17:42:19.819Z,13.77
2018-12-26T17:44:50.128Z,14.70
2018-12-26T17:47:20.431Z,13.20
2018-12-26T17:49:50.676Z,13.40
2018-12-26T17:52:21.084Z,13.67
2018-12-26T17:55:19.237Z,11.27
2018-12-26T17:57:52.061Z,11.27
2018-12-26T18:00:43.817Z,11.70
2018-12-26T18:03:14.649Z,13.53
2018-12-26T18:05:45.039Z,9.97
2018-12-26T18:08:15.389Z,12.53
2018-12-26T18:10:45.695Z,14.27
2018-12-26T18:13:16.060Z,16.30
2018-12-26T18:15:46.342Z,13.23
2018-12-26T18:18:16.921Z,12.30
2018-12-26T18:20:47.193Z,12.77
2018-12-26T18:23:17.544Z,12.80
2018-12-26T18:25:47.876Z,12.13
2018-12-26T18:28:18.284Z,11.90
2018-12-26T18:30:48.696Z,13.53
2018-12-26T18:33:19.241Z,12.40
2018-12-26T18:35:49.558Z,12.80
2018-12-26T18:38:20.037Z,11.47
2018-12-26T18:40:50.160Z,11.23
2018-12-26T18:43:20.510Z,11.70
2018-12-26T18:45:50.807Z,13.13
2018-12-26T18:48:21.220Z,9.70
2018-12-26T18:50:51.496Z,12.50
2018-12-26T18:53:22.024Z,14.17
2018-12-26T18:55:52.236Z,9.73
2018-12-26T18:58:22.583Z,15.20
2018-12-26T19:00:52.963Z,12.73
2018-12-26T19:03:23.212Z,12.80
2018-12-26T19:05:53.579Z,11.53
2018-12-26T19:08:23.817Z,11.23
2018-12-26T19:10:54.056Z,11.10
2018-12-26T19:13:24.396Z,10.87
2018-12-26T19:15:54.686Z,12.37
2018-12-26T19:18:24.940Z,11.13
2018-12-26T19:20:55.486Z,11.63
2018-12-26T19:23:25.911Z,23.17
2018-12-26T19:25:56.418Z,11.50
2018-12-26T19:28:26.692Z,12.73
2018-12-26T19:30:57.013Z,9.00
2018-12-26T19:33:27.434Z,11.77
2018-12-26T19:35:58.677Z,11.63
2018-12-26T19:38:29.321Z,11.40
2018-12-26T19:40:59.877Z,11.13
2018-12-26T19:43:30.611Z,11.43
2018-12-26T19:46:01.348Z,11.80
2018-12-26T19:48:32.692Z,11.63
2018-12-26T19:51:03.161Z,11.90
2018-12-26T19:53:33.933Z,10.77
2018-12-26T19:56:04.444Z,11.67
2018-12-26T19:58:35.079Z,11.40
2018-12-26T20:01:05.668Z,11.57
2018-12-26T20:03:36.240Z,10.83
2018-12-26T20:06:06.617Z,10.73
2018-12-26T20:08:37.831Z,11.33
2018-12-26T20:11:08.041Z,11.77
2018-12-26T20:13:37.763Z,10.03
2018-12-26T20:16:07.908Z,11.63
2018-12-26T20:18:39.200Z,10.97
2018-12-26T20:21:09.404Z,10.67
2018-12-26T20:23:39.688Z,10.70
2018-12-26T20:26:09.954Z,11.87
2018-12-26T20:28:40.313Z,11.40
2018-12-26T20:31:10.804Z,11.93
2018-12-26T20:33:41.187Z,12.87
2018-12-26T20:36:11.841Z,11.67
2018-12-26T20:38:42.539Z,12.33
2018-12-26T20:41:12.996Z,11.47
2018-12-26T20:43:43.304Z,13.27
2018-12-26T20:46:13.698Z,12.07
2018-12-26T20:48:44.107Z,12.03
2018-12-26T20:51:14.529Z,13.10
2018-12-26T20:53:45.033Z,11.43
2018-12-26T20:56:15.319Z,12.20
2018-12-26T20:58:45.879Z,12.03
2018-12-26T21:01:16.092Z,11.50
2018-12-26T21:03:46.338Z,12.13
2018-12-26T21:06:16.708Z,11.80
2018-12-26T21:08:46.492Z,11.33
2018-12-26T21:11:16.828Z,10.73
2018-12-26T21:13:46.749Z,11.73
2018-12-26T21:16:18.052Z,11.00
2018-12-26T21:18:48.450Z,11.73
2018-12-26T21:21:18.877Z,12.10
2018-12-26T21:23:49.299Z,9.40
2018-12-26T21:26:19.856Z,10.63
2018-12-26T21:28:50.353Z,10.63
2018-12-26T21:31:20.701Z,11.30
2018-12-26T21:33:51.139Z,11.07
2018-12-26T21:36:21.480Z,11.43
2018-12-26T21:38:52.036Z,10.70
2018-12-26T21:41:22.332Z,10.87
2018-12-26T21:43:52.676Z,12.80
2018-12-26T21:46:23.072Z,13.10
2018-12-26T21:48:53.589Z,10.77
2018-12-26T21:51:23.831Z,10.87
2018-12-26T21:53:54.459Z,10.33
2018-12-26T21:56:24.846Z,12.37
2018-12-26T21:58:55.184Z,13.13
2018-12-26T22:01:25.392Z,11.13
2018-12-26T22:03:55.839Z,10.70
2018-12-26T22:06:26.078Z,10.47
2018-12-26T22:08:56.444Z,11.20
2018-12-26T22:11:26.732Z,11.67
2018-12-26T22:13:56.963Z,13.93
2018-12-26T22:16:27.243Z,11.80
2018-12-26T22:18:57.572Z,11.07
2018-12-26T22:21:27.856Z,10.23
2018-12-26T22:23:58.180Z,10.67
2018-12-26T22:26:28.733Z,9.97
2018-12-26T22:28:59.056Z,12.67
2018-12-26T22:31:29.251Z,12.00
2018-12-26T22:33:59.612Z,10.63
2018-12-26T22:36:29.867Z,10.67
2018-12-26T22:39:00.411Z,11.50
2018-12-26T22:41:30.696Z,10.93
2018-12-26T22:44:01.028Z,10.10
2018-12-26T22:46:31.332Z,9.97
2018-12-26T22:49:01.623Z,9.53
2018-12-26T22:51:31.941Z,10.13
2018-12-26T22:54:02.335Z,9.87
2018-12-26T22:56:32.528Z,14.07
2018-12-26T22:59:03.167Z,10.53
2018-12-26T23:01:33.518Z,12.43
2018-12-26T23:04:03.821Z,10.50
2018-12-26T23:06:34.089Z,11.13
2018-12-26T23:09:04.776Z,12.70
2018-12-26T23:11:35.092Z,11.77
2018-12-26T23:14:05.475Z,16.17
2018-12-26T23:16:35.731Z,11.00
2018-12-26T23:19:06.051Z,10.00
2018-12-26T23:21:36.173Z,10.33
2018-12-26T23:24:06.506Z,9.47
2018-12-26T23:26:36.744Z,11.00
2018-12-26T23:29:07.134Z,10.57
2018-12-26T23:31:37.508Z,11.03
2018-12-26T23:34:07.993Z,10.10
2018-12-26T23:36:38.320Z,11.23
2018-12-26T23:39:08.967Z,12.83
2018-12-26T23:41:39.204Z,14.30
2018-12-26T23:44:09.629Z,14.20
2018-12-26T23:46:39.928Z,12.33
2018-12-26T23:49:10.137Z,10.80
2018-12-26T23:51:40.412Z,11.63
2018-12-26T23:54:10.672Z,11.43
2018-12-26T23:56:40.945Z,11.90
2018-12-26T23:59:11.464Z,13.90
